sensor_id;sensor_type;location;lat;lon;timestamp;pressure;altitude;pressure_sealevel;temperature;humidity
141;BME280;65;48.778;9.160;2022-09-09T00:02:27;98173.69;;;16.18;68.06
141;BME280;65;48.778;9.160;2022-09-09T00:07:59;98166.53;;;16.18;68.63
141;BME280;65;48.778;9.160;2022-09-09T00:10:30;98159.03;;;16.02;68.91
141;BME280;65;48.778;9.160;2022-09-09T00:13:12;98159.81;;;15.93;70.03
141;BME280;65;48.778;9.160;2022-09-09T00:18:27;98161.38;;;15.96;69.68
141;BME280;65;48.778;9.160;2022-09-09T00:21:06;98153.69;;;16.02;68.81
141;BME280;65;48.778;9.160;2022-09-09T00:23:40;98157.22;;;16.03;70.09
141;BME280;65;48.778;9.160;2022-09-09T00:26:16;98155.91;;;15.97;70.00
141;BME280;65;48.778;9.160;2022-09-09T00:28:50;98156.34;;;16.02;68.88
141;BME280;65;48.778;9.160;2022-09-09T00:31:25;98148.38;;;16.02;69.08
141;BME280;65;48.778;9.160;2022-09-09T00:33:52;98149.69;;;16.18;67.77
141;BME280;65;48.778;9.160;2022-09-09T00:36:21;98155.03;;;16.38;66.64
141;BME280;65;48.778;9.160;2022-09-09T00:38:59;98153.13;;;16.60;64.75
141;BME280;65;48.778;9.160;2022-09-09T00:44:30;98151.56;;;16.88;64.19
141;BME280;65;48.778;9.160;2022-09-09T00:46:56;98145.81;;;16.92;64.72
141;BME280;65;48.778;9.160;2022-09-09T00:50:13;98151.72;;;16.96;64.00
141;BME280;65;48.778;9.160;2022-09-09T00:52:57;98164.53;;;17.02;64.23
141;BME280;65;48.778;9.160;2022-09-09T00:55:54;98156.66;;;17.10;62.70
141;BME280;65;48.778;9.160;2022-09-09T00:58:23;98156.66;;;17.10;63.95
141;BME280;65;48.778;9.160;2022-09-09T01:00:53;98160.44;;;17.07;63.98
141;BME280;65;48.778;9.160;2022-09-09T01:03:37;98160.31;;;17.09;63.32
141;BME280;65;48.778;9.160;2022-09-09T01:11:45;98139.94;;;16.98;63.95
141;BME280;65;48.778;9.160;2022-09-09T01:14:31;98146.25;;;17.07;63.23
141;BME280;65;48.778;9.160;2022-09-09T01:23:17;98155.06;;;16.79;65.25
141;BME280;65;48.778;9.160;2022-09-09T01:25:56;98157.75;;;16.88;64.92
141;BME280;65;48.778;9.160;2022-09-09T01:28:21;98163.66;;;16.92;65.49
141;BME280;65;48.778;9.160;2022-09-09T01:30:47;98172.50;;;16.92;64.04
141;BME280;65;48.778;9.160;2022-09-09T01:33:16;98175.63;;;16.97;64.02
141;BME280;65;48.778;9.160;2022-09-09T01:35:48;98170.41;;;16.96;64.56
141;BME280;65;48.778;9.160;2022-09-09T01:38:16;98174.03;;;16.85;65.67
141;BME280;65;48.778;9.160;2022-09-09T01:40:42;98164.75;;;16.80;65.75
141;BME280;65;48.778;9.160;2022-09-09T01:43:08;98164.50;;;16.83;64.66
141;BME280;65;48.778;9.160;2022-09-09T01:45:34;98173.19;;;16.85;64.42
141;BME280;65;48.778;9.160;2022-09-09T01:48:00;98165.75;;;16.79;65.29
141;BME280;65;48.778;9.160;2022-09-09T01:50:27;98170.63;;;16.73;66.66
141;BME280;65;48.778;9.160;2022-09-09T01:52:57;98166.97;;;16.74;65.65
141;BME280;65;48.778;9.160;2022-09-09T02:03:32;98150.38;;;16.40;67.00
141;BME280;65;48.778;9.160;2022-09-09T02:08:45;98154.84;;;16.09;68.77
141;BME280;65;48.778;9.160;2022-09-09T02:13:41;98157.59;;;15.98;69.36
141;BME280;65;48.778;9.160;2022-09-09T02:16:15;98158.31;;;16.00;70.19
141;BME280;65;48.778;9.160;2022-09-09T02:21:52;98166.44;;;15.99;69.47
141;BME280;65;48.778;9.160;2022-09-09T02:24:18;98166.84;;;15.94;69.88
141;BME280;65;48.778;9.160;2022-09-09T02:26:46;98165.81;;;15.86;70.71
141;BME280;65;48.778;9.160;2022-09-09T02:29:40;98167.81;;;15.72;70.83
141;BME280;65;48.778;9.160;2022-09-09T02:32:14;98168.47;;;15.65;71.40
141;BME280;65;48.778;9.160;2022-09-09T02:34:47;98187.19;;;15.74;71.17
141;BME280;65;48.778;9.160;2022-09-09T02:37:17;98175.16;;;15.80;70.53
141;BME280;65;48.778;9.160;2022-09-09T02:39:44;98174.06;;;15.82;70.82
141;BME280;65;48.778;9.160;2022-09-09T02:42:09;98173.16;;;15.72;71.06
141;BME280;65;48.778;9.160;2022-09-09T02:44:35;98167.75;;;15.63;72.09
141;BME280;65;48.778;9.160;2022-09-09T02:47:21;98164.84;;;15.55;72.38
141;BME280;65;48.778;9.160;2022-09-09T02:52:44;98167.75;;;15.51;72.21
141;BME280;65;48.778;9.160;2022-09-09T02:57:52;98160.00;;;15.48;72.99
141;BME280;65;48.778;9.160;2022-09-09T03:00:26;98173.25;;;15.39;73.82
141;BME280;65;48.778;9.160;2022-09-09T03:02:52;98157.66;;;15.34;73.63
141;BME280;65;48.778;9.160;2022-09-09T03:05:19;98149.41;;;15.37;73.34
141;BME280;65;48.778;9.160;2022-09-09T03:07:45;98148.97;;;15.32;74.10
141;BME280;65;48.778;9.160;2022-09-09T03:10:10;98148.19;;;15.41;72.92
141;BME280;65;48.778;9.160;2022-09-09T03:12:36;98150.84;;;15.41;74.06
141;BME280;65;48.778;9.160;2022-09-09T03:15:01;98149.88;;;15.42;73.85
141;BME280;65;48.778;9.160;2022-09-09T03:17:26;98156.19;;;15.41;74.73
141;BME280;65;48.778;9.160;2022-09-09T03:19:53;98152.09;;;15.37;74.56
141;BME280;65;48.778;9.160;2022-09-09T03:22:19;98145.56;;;15.30;74.14
141;BME280;65;48.778;9.160;2022-09-09T03:24:46;98147.97;;;15.33;74.29
141;BME280;65;48.778;9.160;2022-09-09T03:27:12;98154.16;;;15.34;74.11
141;BME280;65;48.778;9.160;2022-09-09T03:29:39;98151.16;;;15.27;74.04
141;BME280;65;48.778;9.160;2022-09-09T03:32:05;98148.25;;;15.30;74.05
141;BME280;65;48.778;9.160;2022-09-09T03:34:30;98152.59;;;15.31;74.36
141;BME280;65;48.778;9.160;2022-09-09T03:36:56;98156.06;;;15.43;73.65
141;BME280;65;48.778;9.160;2022-09-09T03:39:21;98153.81;;;15.59;72.20
141;BME280;65;48.778;9.160;2022-09-09T03:41:47;98146.13;;;15.77;71.55
141;BME280;65;48.778;9.160;2022-09-09T03:44:13;98147.66;;;15.79;71.95
141;BME280;65;48.778;9.160;2022-09-09T03:46:39;98158.66;;;15.86;71.85
141;BME280;65;48.778;9.160;2022-09-09T03:49:04;98158.97;;;15.93;70.67
141;BME280;65;48.778;9.160;2022-09-09T03:51:29;98153.66;;;15.93;70.95
141;BME280;65;48.778;9.160;2022-09-09T03:53:55;98147.72;;;15.89;71.34
141;BME280;65;48.778;9.160;2022-09-09T03:56:22;98148.25;;;15.83;71.12
141;BME280;65;48.778;9.160;2022-09-09T03:58:47;98142.00;;;15.94;70.33
141;BME280;65;48.778;9.160;2022-09-09T04:01:13;98143.81;;;15.93;70.57
141;BME280;65;48.778;9.160;2022-09-09T04:03:39;98145.72;;;15.81;71.84
141;BME280;65;48.778;9.160;2022-09-09T04:06:06;98150.34;;;15.79;72.31
141;BME280;65;48.778;9.160;2022-09-09T04:08:33;98152.75;;;15.82;71.37
141;BME280;65;48.778;9.160;2022-09-09T04:10:59;98146.25;;;15.75;72.26
141;BME280;65;48.778;9.160;2022-09-09T04:13:27;98149.22;;;15.82;70.82
141;BME280;65;48.778;9.160;2022-09-09T04:15:58;98142.78;;;15.85;71.43
141;BME280;65;48.778;9.160;2022-09-09T04:18:24;98148.53;;;15.80;71.66
141;BME280;65;48.778;9.160;2022-09-09T04:20:51;98150.91;;;15.83;71.48
141;BME280;65;48.778;9.160;2022-09-09T04:23:18;98157.59;;;15.98;70.68
141;BME280;65;48.778;9.160;2022-09-09T04:25:49;98157.66;;;16.08;69.80
141;BME280;65;48.778;9.160;2022-09-09T04:28:15;98157.66;;;16.08;69.55
141;BME280;65;48.778;9.160;2022-09-09T04:30:41;98156.81;;;16.07;69.90
141;BME280;65;48.778;9.160;2022-09-09T04:33:07;98165.78;;;16.06;70.76
141;BME280;65;48.778;9.160;2022-09-09T04:35:33;98160.50;;;16.16;69.13
141;BME280;65;48.778;9.160;2022-09-09T04:37:59;98168.06;;;16.11;70.27
141;BME280;65;48.778;9.160;2022-09-09T04:40:24;98172.41;;;16.12;70.09
141;BME280;65;48.778;9.160;2022-09-09T04:42:50;98157.34;;;16.01;69.98
141;BME280;65;48.778;9.160;2022-09-09T04:45:16;98160.72;;;16.03;70.42
141;BME280;65;48.778;9.160;2022-09-09T04:47:41;98165.88;;;15.95;70.84
141;BME280;65;48.778;9.160;2022-09-09T04:50:08;98171.25;;;15.84;71.43
141;BME280;65;48.778;9.160;2022-09-09T04:52:36;98175.16;;;15.80;71.03
141;BME280;65;48.778;9.160;2022-09-09T04:55:02;98181.66;;;15.66;72.40
141;BME280;65;48.778;9.160;2022-09-09T04:57:27;98178.03;;;15.56;72.29
141;BME280;65;48.778;9.160;2022-09-09T04:59:54;98173.47;;;15.47;72.85
141;BME280;65;48.778;9.160;2022-09-09T05:02:19;98176.97;;;15.47;72.70
141;BME280;65;48.778;9.160;2022-09-09T05:04:44;98170.78;;;15.58;72.67
141;BME280;65;48.778;9.160;2022-09-09T05:07:10;98174.78;;;15.52;73.26
141;BME280;65;48.778;9.160;2022-09-09T05:09:35;98186.13;;;15.55;72.97
141;BME280;65;48.778;9.160;2022-09-09T05:12:01;98189.06;;;15.51;73.18
141;BME280;65;48.778;9.160;2022-09-09T05:14:30;98189.28;;;15.60;72.86
141;BME280;65;48.778;9.160;2022-09-09T05:16:56;98191.69;;;15.74;73.21
141;BME280;65;48.778;9.160;2022-09-09T05:19:23;98178.16;;;15.87;72.32
141;BME280;65;48.778;9.160;2022-09-09T05:21:48;98179.25;;;16.05;71.07
141;BME280;65;48.778;9.160;2022-09-09T05:24:15;98187.69;;;16.10;71.18
141;BME280;65;48.778;9.160;2022-09-09T05:26:41;98184.19;;;16.09;71.49
141;BME280;65;48.778;9.160;2022-09-09T05:29:06;98187.78;;;16.20;70.21
141;BME280;65;48.778;9.160;2022-09-09T05:31:33;98190.63;;;16.28;70.27
141;BME280;65;48.778;9.160;2022-09-09T05:33:58;98188.94;;;16.27;70.51
141;BME280;65;48.778;9.160;2022-09-09T05:36:24;98197.97;;;16.35;70.13
141;BME280;65;48.778;9.160;2022-09-09T05:38:49;98196.84;;;16.38;71.58
141;BME280;65;48.778;9.160;2022-09-09T05:41:16;98199.69;;;16.46;70.13
141;BME280;65;48.778;9.160;2022-09-09T05:43:43;98199.75;;;16.56;70.29
141;BME280;65;48.778;9.160;2022-09-09T05:46:13;98202.47;;;16.65;68.50
141;BME280;65;48.778;9.160;2022-09-09T05:48:43;98204.31;;;16.74;69.00
141;BME280;65;48.778;9.160;2022-09-09T05:51:11;98196.78;;;16.80;68.37
141;BME280;65;48.778;9.160;2022-09-09T05:53:38;98197.06;;;16.77;69.11
141;BME280;65;48.778;9.160;2022-09-09T05:56:06;98203.84;;;16.90;68.16
141;BME280;65;48.778;9.160;2022-09-09T05:58:32;98210.91;;;17.01;67.73
141;BME280;65;48.778;9.160;2022-09-09T06:01:25;98207.53;;;17.08;67.63
141;BME280;65;48.778;9.160;2022-09-09T06:03:54;98206.84;;;17.16;67.23
141;BME280;65;48.778;9.160;2022-09-09T06:06:22;98208.69;;;17.25;66.62
141;BME280;65;48.778;9.160;2022-09-09T06:08:50;98205.94;;;17.36;66.18
141;BME280;65;48.778;9.160;2022-09-09T06:11:17;98211.56;;;17.43;65.81
141;BME280;65;48.778;9.160;2022-09-09T06:13:43;98200.44;;;17.48;65.78
141;BME280;65;48.778;9.160;2022-09-09T06:16:12;98201.28;;;17.48;65.60
141;BME280;65;48.778;9.160;2022-09-09T06:18:42;98204.53;;;17.42;65.98
141;BME280;65;48.778;9.160;2022-09-09T06:21:28;98207.06;;;17.44;66.43
141;BME280;65;48.778;9.160;2022-09-09T06:23:55;98210.28;;;17.47;66.19
141;BME280;65;48.778;9.160;2022-09-09T06:26:29;98212.41;;;17.44;66.18
141;BME280;65;48.778;9.160;2022-09-09T06:28:56;98207.06;;;17.44;66.69
141;BME280;65;48.778;9.160;2022-09-09T06:31:25;98216.06;;;17.62;65.64
141;BME280;65;48.778;9.160;2022-09-09T06:33:58;98218.03;;;17.60;66.51
141;BME280;65;48.778;9.160;2022-09-09T06:36:27;98213.41;;;17.72;66.01
141;BME280;65;48.778;9.160;2022-09-09T06:38:53;98203.28;;;17.85;66.16
141;BME280;65;48.778;9.160;2022-09-09T06:41:22;98216.66;;;18.04;64.77
141;BME280;65;48.778;9.160;2022-09-09T06:43:49;98208.59;;;18.14;64.05
141;BME280;65;48.778;9.160;2022-09-09T06:46:16;98211.53;;;18.20;63.87
141;BME280;65;48.778;9.160;2022-09-09T06:48:43;98218.03;;;18.18;64.94
141;BME280;65;48.778;9.160;2022-09-09T06:51:20;98213.22;;;18.31;63.86
141;BME280;65;48.778;9.160;2022-09-09T06:53:53;98217.09;;;18.46;63.39
141;BME280;65;48.778;9.160;2022-09-09T06:58:46;98218.53;;;18.50;63.75
141;BME280;65;48.778;9.160;2022-09-09T07:01:16;98222.84;;;18.61;62.71
141;BME280;65;48.778;9.160;2022-09-09T07:03:45;98210.59;;;18.68;62.89
141;BME280;65;48.778;9.160;2022-09-09T07:06:20;98219.28;;;18.80;62.76
141;BME280;65;48.778;9.160;2022-09-09T07:08:51;98224.00;;;18.95;61.96
141;BME280;65;48.778;9.160;2022-09-09T07:11:17;98219.19;;;18.99;61.40
141;BME280;65;48.778;9.160;2022-09-09T07:13:43;98221.13;;;19.07;61.35
141;BME280;65;48.778;9.160;2022-09-09T07:16:10;98224.75;;;19.15;61.41
141;BME280;65;48.778;9.160;2022-09-09T07:18:36;98225.25;;;19.28;60.79
141;BME280;65;48.778;9.160;2022-09-09T07:21:03;98218.91;;;19.47;60.17
141;BME280;65;48.778;9.160;2022-09-09T07:23:29;98217.72;;;19.59;59.47
141;BME280;65;48.778;9.160;2022-09-09T07:25:56;98216.19;;;19.57;59.67
141;BME280;65;48.778;9.160;2022-09-09T07:28:22;98206.97;;;19.59;60.07
141;BME280;65;48.778;9.160;2022-09-09T07:30:59;98218.56;;;19.60;59.72
141;BME280;65;48.778;9.160;2022-09-09T07:33:25;98217.66;;;19.69;59.67
141;BME280;65;48.778;9.160;2022-09-09T07:35:51;98218.88;;;19.93;59.12
141;BME280;65;48.778;9.160;2022-09-09T07:38:19;98214.66;;;20.34;58.12
141;BME280;65;48.778;9.160;2022-09-09T07:40:44;98209.25;;;20.26;58.44
141;BME280;65;48.778;9.160;2022-09-09T07:43:10;98213.44;;;20.80;56.66
141;BME280;65;48.778;9.160;2022-09-09T07:45:36;98216.00;;;20.81;55.87
141;BME280;65;48.778;9.160;2022-09-09T07:48:02;98213.38;;;20.98;55.79
141;BME280;65;48.778;9.160;2022-09-09T07:50:28;98222.41;;;20.89;56.51
141;BME280;65;48.778;9.160;2022-09-09T07:52:54;98219.94;;;20.69;56.97
141;BME280;65;48.778;9.160;2022-09-09T07:55:23;98223.00;;;20.05;59.21
141;BME280;65;48.778;9.160;2022-09-09T07:57:55;98222.53;;;19.92;59.66
141;BME280;65;48.778;9.160;2022-09-09T08:00:21;98220.09;;;19.80;59.95
141;BME280;65;48.778;9.160;2022-09-09T08:02:47;98223.53;;;19.90;59.06
141;BME280;65;48.778;9.160;2022-09-09T08:05:13;98223.84;;;19.87;60.38
141;BME280;65;48.778;9.160;2022-09-09T08:07:41;98237.84;;;20.17;58.50
141;BME280;65;48.778;9.160;2022-09-09T08:10:06;98238.63;;;20.27;57.44
141;BME280;65;48.778;9.160;2022-09-09T08:12:32;98231.25;;;20.29;58.01
141;BME280;65;48.778;9.160;2022-09-09T08:14:58;98234.53;;;20.41;57.33
141;BME280;65;48.778;9.160;2022-09-09T08:17:23;98228.69;;;20.45;56.65
141;BME280;65;48.778;9.160;2022-09-09T08:19:49;98232.84;;;20.40;56.81
141;BME280;65;48.778;9.160;2022-09-09T08:22:14;98230.84;;;20.42;57.02
141;BME280;65;48.778;9.160;2022-09-09T08:24:40;98231.94;;;20.31;58.81
141;BME280;65;48.778;9.160;2022-09-09T08:27:06;98244.16;;;20.51;57.75
141;BME280;65;48.778;9.160;2022-09-09T08:29:31;98246.84;;;20.77;56.30
141;BME280;65;48.778;9.160;2022-09-09T08:31:58;98246.13;;;21.01;54.82
141;BME280;65;48.778;9.160;2022-09-09T08:34:24;98248.19;;;21.07;54.45
141;BME280;65;48.778;9.160;2022-09-09T08:36:52;98241.22;;;21.23;54.24
141;BME280;65;48.778;9.160;2022-09-09T08:39:20;98233.25;;;21.47;55.09
141;BME280;65;48.778;9.160;2022-09-09T08:58:14;98232.34;;;29.59;33.10
141;BME280;65;48.778;9.160;2022-09-09T09:01:10;98226.53;;;29.29;35.15
141;BME280;65;48.778;9.160;2022-09-09T09:08:48;98244.84;;;25.37;40.05
141;BME280;65;48.778;9.160;2022-09-09T09:11:16;98240.50;;;24.40;41.29
141;BME280;65;48.778;9.160;2022-09-09T09:18:58;98242.41;;;22.44;46.84
141;BME280;65;48.778;9.160;2022-09-09T09:21:41;98234.19;;;22.13;47.82
141;BME280;65;48.778;9.160;2022-09-09T09:24:34;98244.34;;;21.52;53.94
141;BME280;65;48.778;9.160;2022-09-09T09:27:16;98253.16;;;20.68;57.62
141;BME280;65;48.778;9.160;2022-09-09T09:29:44;98257.94;;;20.13;58.43
141;BME280;65;48.778;9.160;2022-09-09T09:32:14;98259.97;;;19.75;61.41
141;BME280;65;48.778;9.160;2022-09-09T09:34:48;98260.16;;;19.37;58.16
141;BME280;65;48.778;9.160;2022-09-09T09:37:26;98262.22;;;19.25;60.74
141;BME280;65;48.778;9.160;2022-09-09T09:39:53;98261.44;;;19.60;56.85
141;BME280;65;48.778;9.160;2022-09-09T09:42:19;98250.56;;;20.15;54.01
141;BME280;65;48.778;9.160;2022-09-09T09:44:44;98238.25;;;20.74;53.10
141;BME280;65;48.778;9.160;2022-09-09T09:47:18;98241.00;;;21.16;52.25
141;BME280;65;48.778;9.160;2022-09-09T09:49:57;98243.44;;;21.01;51.78
141;BME280;65;48.778;9.160;2022-09-09T09:52:29;98233.00;;;20.90;51.65
141;BME280;65;48.778;9.160;2022-09-09T09:54:57;98228.25;;;20.84;51.99
141;BME280;65;48.778;9.160;2022-09-09T09:57:28;98218.97;;;20.78;52.50
141;BME280;65;48.778;9.160;2022-09-09T10:00:16;98217.63;;;21.08;50.14
141;BME280;65;48.778;9.160;2022-09-09T10:02:44;98199.97;;;21.56;50.54
141;BME280;65;48.778;9.160;2022-09-09T10:07:43;98200.81;;;25.29;42.92
141;BME280;65;48.778;9.160;2022-09-09T10:10:31;98197.78;;;28.69;34.27
141;BME280;65;48.778;9.160;2022-09-09T10:13:20;98193.88;;;30.62;31.19
141;BME280;65;48.778;9.160;2022-09-09T10:16:10;98191.47;;;31.34;30.02
141;BME280;65;48.778;9.160;2022-09-09T10:18:58;98187.84;;;30.53;29.79
141;BME280;65;48.778;9.160;2022-09-09T10:21:51;98183.19;;;31.40;29.21
141;BME280;65;48.778;9.160;2022-09-09T10:38:38;98178.56;;;28.31;36.98
141;BME280;65;48.778;9.160;2022-09-09T10:41:16;98183.88;;;31.36;30.40
141;BME280;65;48.778;9.160;2022-09-09T10:43:51;98187.44;;;29.17;34.00
141;BME280;65;48.778;9.160;2022-09-09T10:46:29;98191.09;;;27.31;36.74
141;BME280;65;48.778;9.160;2022-09-09T10:52:10;98185.00;;;24.96;42.91
141;BME280;65;48.778;9.160;2022-09-09T10:57:36;98188.63;;;25.90;41.55
141;BME280;65;48.778;9.160;2022-09-09T11:00:17;98187.94;;;28.22;38.51
141;BME280;65;48.778;9.160;2022-09-09T11:02:43;98167.84;;;29.47;35.43
141;BME280;65;48.778;9.160;2022-09-09T11:05:20;98166.56;;;29.87;33.78
141;BME280;65;48.778;9.160;2022-09-09T11:10:45;98172.66;;;28.87;33.33
141;BME280;65;48.778;9.160;2022-09-09T11:13:18;98182.97;;;27.31;34.99
141;BME280;65;48.778;9.160;2022-09-09T11:16:00;98180.34;;;25.41;37.81
141;BME280;65;48.778;9.160;2022-09-09T11:18:29;98186.81;;;23.99;41.73
141;BME280;65;48.778;9.160;2022-09-09T11:20:59;98199.13;;;22.53;43.89
141;BME280;65;48.778;9.160;2022-09-09T11:23:34;98208.91;;;21.65;44.83
141;BME280;65;48.778;9.160;2022-09-09T11:26:05;98208.38;;;21.53;44.33
141;BME280;65;48.778;9.160;2022-09-09T11:29:14;98226.88;;;21.72;44.42
141;BME280;65;48.778;9.160;2022-09-09T11:40:30;98236.97;;;21.20;48.42
141;BME280;65;48.778;9.160;2022-09-09T11:45:28;98247.22;;;21.16;48.76
141;BME280;65;48.778;9.160;2022-09-09T11:47:59;98236.53;;;20.91;50.35
141;BME280;65;48.778;9.160;2022-09-09T11:52:51;98232.00;;;20.91;49.66
141;BME280;65;48.778;9.160;2022-09-09T11:58:00;98224.09;;;21.32;49.68
141;BME280;65;48.778;9.160;2022-09-09T12:03:04;98214.34;;;23.01;45.80
141;BME280;65;48.778;9.160;2022-09-09T12:05:42;98217.47;;;24.29;40.68
141;BME280;65;48.778;9.160;2022-09-09T12:08:11;98219.25;;;26.89;36.23
141;BME280;65;48.778;9.160;2022-09-09T12:10:55;98222.72;;;26.76;36.36
141;BME280;65;48.778;9.160;2022-09-09T12:13:23;98215.00;;;25.31;38.17
141;BME280;65;48.778;9.160;2022-09-09T12:15:55;98199.94;;;27.05;35.73
141;BME280;65;48.778;9.160;2022-09-09T12:18:31;98197.38;;;29.88;30.78
141;BME280;65;48.778;9.160;2022-09-09T12:23:55;98205.53;;;31.12;28.11
141;BME280;65;48.778;9.160;2022-09-09T12:29:25;98193.38;;;28.09;30.99
141;BME280;65;48.778;9.160;2022-09-09T12:32:00;98190.59;;;27.69;33.82
141;BME280;65;48.778;9.160;2022-09-09T12:39:55;98182.31;;;27.84;32.34
141;BME280;65;48.778;9.160;2022-09-09T12:42:22;98193.31;;;26.52;33.78
141;BME280;65;48.778;9.160;2022-09-09T12:47:19;98188.06;;;24.78;38.17
141;BME280;65;48.778;9.160;2022-09-09T12:49:47;98188.22;;;24.10;38.20
141;BME280;65;48.778;9.160;2022-09-09T12:52:35;98196.16;;;23.65;39.54
141;BME280;65;48.778;9.160;2022-09-09T12:55:24;98180.97;;;24.33;39.38
141;BME280;65;48.778;9.160;2022-09-09T12:57:51;98171.84;;;26.51;36.25
141;BME280;65;48.778;9.160;2022-09-09T13:00:36;98165.72;;;27.04;33.98
141;BME280;65;48.778;9.160;2022-09-09T13:03:20;98165.75;;;27.72;32.15
141;BME280;65;48.778;9.160;2022-09-09T13:06:13;98171.31;;;27.51;32.89
141;BME280;65;48.778;9.160;2022-09-09T13:08:39;98166.94;;;27.56;32.62
141;BME280;65;48.778;9.160;2022-09-09T13:11:12;98160.50;;;26.40;34.28
141;BME280;65;48.778;9.160;2022-09-09T13:13:41;98175.09;;;25.69;36.44
141;BME280;65;48.778;9.160;2022-09-09T13:16:23;98158.09;;;25.60;36.74
141;BME280;65;48.778;9.160;2022-09-09T13:18:51;98156.56;;;25.51;37.17
141;BME280;65;48.778;9.160;2022-09-09T13:21:17;98157.91;;;25.26;37.52
141;BME280;65;48.778;9.160;2022-09-09T13:23:48;98149.66;;;25.91;36.41
141;BME280;65;48.778;9.160;2022-09-09T13:26:26;98158.44;;;25.93;37.46
141;BME280;65;48.778;9.160;2022-09-09T13:28:53;98145.59;;;26.30;35.62
141;BME280;65;48.778;9.160;2022-09-09T13:31:37;98154.78;;;27.32;33.73
141;BME280;65;48.778;9.160;2022-09-09T13:34:31;98151.25;;;27.38;33.02
141;BME280;65;48.778;9.160;2022-09-09T13:37:17;98138.34;;;27.60;33.21
141;BME280;65;48.778;9.160;2022-09-09T13:39:51;98141.13;;;28.07;31.36
141;BME280;65;48.778;9.160;2022-09-09T13:42:29;98143.44;;;28.29;31.10
141;BME280;65;48.778;9.160;2022-09-09T13:44:57;98129.16;;;28.67;29.05
141;BME280;65;48.778;9.160;2022-09-09T13:47:34;98138.94;;;26.95;32.34
141;BME280;65;48.778;9.160;2022-09-09T13:50:22;98135.22;;;26.61;32.60
141;BME280;65;48.778;9.160;2022-09-09T13:52:54;98134.31;;;25.98;33.45
141;BME280;65;48.778;9.160;2022-09-09T13:55:21;98126.63;;;26.30;33.75
141;BME280;65;48.778;9.160;2022-09-09T14:00:18;98140.09;;;28.08;30.38
141;BME280;65;48.778;9.160;2022-09-09T14:02:43;98134.88;;;28.26;30.35
141;BME280;65;48.778;9.160;2022-09-09T14:05:10;98122.03;;;27.54;31.29
141;BME280;65;48.778;9.160;2022-09-09T14:07:37;98130.66;;;27.03;31.93
141;BME280;65;48.778;9.160;2022-09-09T14:10:04;98136.47;;;27.00;32.63
141;BME280;65;48.778;9.160;2022-09-09T14:12:49;98132.94;;;27.67;30.67
141;BME280;65;48.778;9.160;2022-09-09T14:15:15;98129.84;;;27.83;29.65
141;BME280;65;48.778;9.160;2022-09-09T14:17:41;98124.47;;;27.22;32.43
141;BME280;65;48.778;9.160;2022-09-09T14:20:07;98123.59;;;27.15;30.86
141;BME280;65;48.778;9.160;2022-09-09T14:22:52;98117.78;;;26.14;32.85
141;BME280;65;48.778;9.160;2022-09-09T14:25:30;98120.28;;;24.80;34.67
141;BME280;65;48.778;9.160;2022-09-09T14:27:56;98124.97;;;24.04;36.89
141;BME280;65;48.778;9.160;2022-09-09T14:30:22;98129.97;;;23.78;38.09
141;BME280;65;48.778;9.160;2022-09-09T14:32:48;98122.72;;;23.47;38.34
141;BME280;65;48.778;9.160;2022-09-09T14:35:13;98127.59;;;24.50;36.13
141;BME280;65;48.778;9.160;2022-09-09T14:37:39;98120.13;;;25.53;36.01
141;BME280;65;48.778;9.160;2022-09-09T14:40:05;98115.00;;;25.22;35.20
141;BME280;65;48.778;9.160;2022-09-09T14:42:30;98118.50;;;25.38;34.83
141;BME280;65;48.778;9.160;2022-09-09T14:44:56;98120.38;;;25.37;34.82
141;BME280;65;48.778;9.160;2022-09-09T14:47:24;98117.56;;;25.88;34.56
141;BME280;65;48.778;9.160;2022-09-09T14:49:51;98115.72;;;25.67;33.63
141;BME280;65;48.778;9.160;2022-09-09T14:52:16;98112.75;;;25.26;34.03
141;BME280;65;48.778;9.160;2022-09-09T14:54:42;98126.38;;;24.67;35.88
141;BME280;65;48.778;9.160;2022-09-09T14:57:07;98129.19;;;24.21;35.58
141;BME280;65;48.778;9.160;2022-09-09T14:59:33;98136.16;;;24.68;34.83
141;BME280;65;48.778;9.160;2022-09-09T15:01:59;98130.63;;;25.06;33.74
141;BME280;65;48.778;9.160;2022-09-09T15:04:29;98132.16;;;25.30;33.36
141;BME280;65;48.778;9.160;2022-09-09T15:06:54;98134.91;;;24.85;35.93
141;BME280;65;48.778;9.160;2022-09-09T15:09:20;98137.94;;;24.46;35.30
141;BME280;65;48.778;9.160;2022-09-09T15:11:46;98133.00;;;24.12;36.26
141;BME280;65;48.778;9.160;2022-09-09T15:14:15;98132.81;;;23.53;37.35
141;BME280;65;48.778;9.160;2022-09-09T15:16:41;98147.47;;;23.28;37.86
141;BME280;65;48.778;9.160;2022-09-09T15:19:06;98135.53;;;22.91;38.51
141;BME280;65;48.778;9.160;2022-09-09T15:21:34;98142.66;;;22.84;38.67
141;BME280;65;48.778;9.160;2022-09-09T15:24:00;98135.78;;;22.65;38.74
141;BME280;65;48.778;9.160;2022-09-09T15:26:26;98137.50;;;22.58;39.18
141;BME280;65;48.778;9.160;2022-09-09T15:28:52;98134.63;;;22.60;39.25
141;BME280;65;48.778;9.160;2022-09-09T15:31:24;98135.94;;;22.72;39.65
141;BME280;65;48.778;9.160;2022-09-09T15:33:50;98133.72;;;22.76;39.27
141;BME280;65;48.778;9.160;2022-09-09T15:36:21;98129.44;;;22.58;40.31
141;BME280;65;48.778;9.160;2022-09-09T15:38:47;98127.66;;;22.82;39.80
141;BME280;65;48.778;9.160;2022-09-09T15:41:13;98129.34;;;22.75;40.48
141;BME280;65;48.778;9.160;2022-09-09T15:43:46;98132.97;;;22.59;40.45
141;BME280;65;48.778;9.160;2022-09-09T15:46:37;98140.78;;;22.29;40.81
141;BME280;65;48.778;9.160;2022-09-09T15:51:30;98138.13;;;21.97;41.62
141;BME280;65;48.778;9.160;2022-09-09T15:53:57;98138.78;;;21.83;42.79
141;BME280;65;48.778;9.160;2022-09-09T15:56:23;98137.78;;;21.75;42.16
141;BME280;65;48.778;9.160;2022-09-09T15:58:49;98142.31;;;21.75;41.96
141;BME280;65;48.778;9.160;2022-09-09T16:01:15;98142.47;;;21.73;41.96
141;BME280;65;48.778;9.160;2022-09-09T16:03:42;98139.78;;;21.65;42.20
141;BME280;65;48.778;9.160;2022-09-09T16:06:14;98144.84;;;21.68;41.75
141;BME280;65;48.778;9.160;2022-09-09T16:08:42;98150.22;;;21.60;42.22
141;BME280;65;48.778;9.160;2022-09-09T16:11:16;98152.06;;;21.60;41.62
141;BME280;65;48.778;9.160;2022-09-09T16:13:45;98159.13;;;21.61;42.03
141;BME280;65;48.778;9.160;2022-09-09T16:16:12;98156.28;;;21.62;42.00
141;BME280;65;48.778;9.160;2022-09-09T16:18:40;98156.25;;;21.54;42.20
141;BME280;65;48.778;9.160;2022-09-09T16:21:07;98167.69;;;21.48;42.29
141;BME280;65;48.778;9.160;2022-09-09T16:23:34;98160.47;;;21.49;42.47
141;BME280;65;48.778;9.160;2022-09-09T16:26:01;98159.63;;;21.48;42.51
141;BME280;65;48.778;9.160;2022-09-09T16:29:03;98168.81;;;21.37;43.12
141;BME280;65;48.778;9.160;2022-09-09T16:31:30;98174.03;;;21.31;43.75